createdAt,value
2023-02-09T00:02:13.919Z,-5.11
2023-02-09T00:04:40.450Z,-5.13
2023-02-09T00:07:06.994Z,-5.22
2023-02-09T00:09:33.624Z,-5.33
2023-02-09T00:12:18.835Z,-5.40
2023-02-09T00:14:45.276Z,-5.54
2023-02-09T00:17:11.765Z,-5.39
2023-02-09T00:19:38.205Z,-5.50
2023-02-09T00:22:04.764Z,-5.53
2023-02-09T00:24:31.272Z,-5.82
2023-02-09T00:26:57.799Z,-5.75
2023-02-09T00:29:24.451Z,-5.77
2023-02-09T00:31:51.865Z,-5.83
2023-02-09T00:34:19.682Z,-5.72
2023-02-09T00:36:46.462Z,-5.72
2023-02-09T00:39:13.149Z,-5.76
2023-02-09T00:41:58.224Z,-5.78
2023-02-09T00:44:25.876Z,-5.84
2023-02-09T00:46:52.561Z,-5.87
2023-02-09T00:49:19.849Z,-5.84
2023-02-09T00:51:46.660Z,-5.70
2023-02-09T00:54:14.279Z,-5.74
2023-02-09T00:56:41.046Z,-5.84
2023-02-09T00:59:07.966Z,-5.63
2023-02-09T01:01:35.780Z,-5.63
2023-02-09T01:04:05.397Z,-5.56
2023-02-09T01:06:32.303Z,-5.54
2023-02-09T01:08:59.006Z,-5.56
2023-02-09T01:11:31.689Z,-5.58
2023-02-09T01:13:59.492Z,-5.75
2023-02-09T01:16:28.740Z,-5.86
2023-02-09T01:18:56.093Z,-5.79
2023-02-09T01:21:23.523Z,-5.86
2023-02-09T01:23:50.299Z,-5.94
2023-02-09T01:26:18.116Z,-5.72
2023-02-09T01:28:44.838Z,-5.87
2023-02-09T01:31:27.815Z,-5.98
2023-02-09T01:33:55.950Z,-6.06
2023-02-09T01:36:22.920Z,-6.04
2023-02-09T01:38:50.825Z,-5.98
2023-02-09T01:41:17.713Z,-5.93
2023-02-09T01:43:48.336Z,-6.05
2023-02-09T01:46:14.799Z,-6.06
2023-02-09T01:48:41.677Z,-6.04
2023-02-09T01:51:08.449Z,-5.98
2023-02-09T01:53:34.945Z,-5.96
2023-02-09T01:56:10.915Z,-5.87
2023-02-09T01:58:37.906Z,-5.90
2023-02-09T02:01:05.519Z,-5.93
2023-02-09T02:03:32.574Z,-6.06
2023-02-09T02:06:06.026Z,-6.03
2023-02-09T02:08:38.269Z,-6.11
2023-02-09T02:11:05.560Z,-6.10
2023-02-09T02:13:32.001Z,-6.00
2023-02-09T02:16:27.549Z,-6.20
2023-02-09T02:19:17.282Z,-6.23
2023-02-09T02:22:04.370Z,-6.23
2023-02-09T02:25:05.455Z,-6.13
2023-02-09T02:27:46.811Z,-6.24
2023-02-09T02:30:25.473Z,-6.28
2023-02-09T02:33:19.805Z,-6.35
2023-02-09T02:35:54.178Z,-6.47
2023-02-09T02:38:38.483Z,-6.54
2023-02-09T02:41:16.399Z,-6.53
2023-02-09T02:44:04.517Z,-6.49
2023-02-09T02:46:39.643Z,-6.44
2023-02-09T02:49:32.386Z,-6.60
2023-02-09T02:52:03.791Z,-6.53
2023-02-09T02:54:38.424Z,-6.62
2023-02-09T02:57:11.589Z,-6.61
2023-02-09T02:59:47.027Z,-6.81
2023-02-09T03:02:23.812Z,-6.67
2023-02-09T03:04:54.385Z,-6.58
2023-02-09T03:07:20.952Z,-6.60
2023-02-09T03:09:52.188Z,-6.56
2023-02-09T03:12:31.177Z,-6.50
2023-02-09T03:15:06.670Z,-6.47
2023-02-09T03:17:45.215Z,-6.54
2023-02-09T03:20:25.778Z,-6.68
2023-02-09T03:22:58.208Z,-6.77
2023-02-09T03:25:35.132Z,-6.94
2023-02-09T03:28:19.369Z,-6.94
2023-02-09T03:30:49.714Z,-7.05
2023-02-09T03:33:20.981Z,-7.00
2023-02-09T03:35:51.791Z,-6.94
2023-02-09T03:38:18.355Z,-6.87
2023-02-09T03:40:46.189Z,-6.79
2023-02-09T03:43:13.416Z,-6.79
2023-02-09T03:45:40.075Z,-6.95
2023-02-09T03:48:07.032Z,-6.87
2023-02-09T03:50:35.658Z,-6.95
2023-02-09T03:53:06.510Z,-7.01
2023-02-09T03:55:34.184Z,-6.95
2023-02-09T03:58:00.727Z,-6.81
2023-02-09T04:00:30.526Z,-6.95
2023-02-09T04:02:59.330Z,-6.96
2023-02-09T04:05:25.852Z,-7.20
2023-02-09T04:07:52.353Z,-7.02
2023-02-09T04:10:19.135Z,-7.04
2023-02-09T04:12:45.604Z,-7.15
2023-02-09T04:15:12.185Z,-7.44
2023-02-09T04:17:38.697Z,-7.27
2023-02-09T04:20:05.614Z,-7.38
2023-02-09T04:22:32.120Z,-7.33
2023-02-09T04:24:58.513Z,-7.50
2023-02-09T04:27:24.993Z,-7.56
2023-02-09T04:29:51.461Z,-7.67
2023-02-09T04:32:17.988Z,-7.74
2023-02-09T04:34:44.442Z,-7.68
2023-02-09T04:37:11.057Z,-7.62
2023-02-09T04:39:37.526Z,-7.65
2023-02-09T04:42:04.011Z,-7.53
2023-02-09T04:44:30.681Z,-7.49
2023-02-09T04:46:57.192Z,-7.64
2023-02-09T04:49:23.620Z,-7.58
2023-02-09T04:51:51.237Z,-7.61
2023-02-09T04:54:17.803Z,-7.80
2023-02-09T04:56:44.207Z,-7.73
2023-02-09T04:59:29.329Z,-7.66
2023-02-09T05:01:55.843Z,-7.50
2023-02-09T05:04:22.250Z,-7.46
2023-02-09T05:06:48.814Z,-7.47
2023-02-09T05:09:15.264Z,-7.65
2023-02-09T05:11:41.812Z,-7.61
2023-02-09T05:14:08.253Z,-7.68
2023-02-09T05:16:37.606Z,-7.70
2023-02-09T05:19:05.235Z,-7.59
2023-02-09T05:21:31.685Z,-7.77
2023-02-09T05:23:58.072Z,-7.64
2023-02-09T05:26:24.513Z,-7.57
2023-02-09T05:28:50.952Z,-7.62
2023-02-09T05:31:18.232Z,-7.69
2023-02-09T05:33:44.874Z,-7.69
2023-02-09T05:36:12.841Z,-7.68
2023-02-09T05:38:40.125Z,-7.63
2023-02-09T05:41:11.940Z,-7.62
2023-02-09T05:43:38.375Z,-7.59
2023-02-09T05:46:07.773Z,-7.59
2023-02-09T05:48:34.652Z,-7.46
2023-02-09T05:51:01.369Z,-7.45
2023-02-09T05:53:27.787Z,-7.45
2023-02-09T05:55:54.276Z,-7.53
2023-02-09T05:58:20.672Z,-7.51
2023-02-09T06:00:47.381Z,-7.56
2023-02-09T06:03:14.058Z,-7.59
2023-02-09T06:05:40.646Z,-7.62
2023-02-09T06:08:07.051Z,-7.70
2023-02-09T06:10:34.005Z,-7.71
2023-02-09T06:13:00.406Z,-7.82
2023-02-09T06:15:26.833Z,-7.94
2023-02-09T06:17:53.335Z,-7.99
2023-02-09T06:20:19.753Z,-7.88
2023-02-09T06:22:46.168Z,-7.96
2023-02-09T06:25:12.654Z,-7.95
2023-02-09T06:27:39.200Z,-8.12
2023-02-09T06:30:06.832Z,-8.40
2023-02-09T06:32:33.260Z,-8.22
2023-02-09T06:34:59.803Z,-8.08
2023-02-09T06:37:26.336Z,-8.12
2023-02-09T06:39:52.926Z,-8.26
2023-02-09T06:42:19.370Z,-8.07
2023-02-09T06:44:45.808Z,-8.11
2023-02-09T06:47:12.312Z,-8.14
2023-02-09T06:49:38.795Z,-8.06
2023-02-09T06:52:05.471Z,-8.09
2023-02-09T06:54:32.006Z,-7.94
2023-02-09T06:56:58.435Z,-7.86
2023-02-09T06:59:25.117Z,-7.86
2023-02-09T07:01:54.633Z,-7.73
2023-02-09T07:04:21.626Z,-7.07
2023-02-09T07:06:48.166Z,-6.43
2023-02-09T07:09:14.593Z,-5.71
2023-02-09T07:11:41.031Z,-5.03
2023-02-09T07:14:07.522Z,-4.28
2023-02-09T07:16:34.058Z,-3.48
2023-02-09T07:19:01.079Z,-3.18
2023-02-09T07:21:27.520Z,-2.79
2023-02-09T07:23:53.953Z,-2.54
2023-02-09T07:26:20.433Z,-2.41
2023-02-09T07:28:47.076Z,-2.39
2023-02-09T07:31:15.764Z,-2.38
2023-02-09T07:33:43.069Z,-2.42
2023-02-09T07:36:11.986Z,-2.38
2023-02-09T07:38:40.705Z,-2.22
2023-02-09T07:41:12.720Z,-2.34
2023-02-09T07:43:40.162Z,-1.92
2023-02-09T07:46:07.923Z,-1.72
2023-02-09T07:48:35.714Z,-1.24
2023-02-09T07:51:04.573Z,-0.99
2023-02-09T07:53:31.155Z,-1.14
2023-02-09T07:55:58.152Z,-0.78
2023-02-09T07:58:24.733Z,-0.48
2023-02-09T08:00:51.666Z,0.11
2023-02-09T08:03:20.827Z,0.38
2023-02-09T08:06:19.676Z,0.51
2023-02-09T08:08:47.934Z,0.52
2023-02-09T08:11:16.701Z,0.56
2023-02-09T08:13:44.569Z,0.86
2023-02-09T08:16:15.754Z,0.90
2023-02-09T08:18:50.040Z,1.06
2023-02-09T08:21:17.710Z,0.88
2023-02-09T08:23:46.484Z,0.90
2023-02-09T08:26:14.001Z,1.38
2023-02-09T08:28:45.542Z,1.69
2023-02-09T08:31:18.743Z,2.02
2023-02-09T08:33:47.473Z,1.95
2023-02-09T08:36:16.345Z,2.24
2023-02-09T08:38:42.948Z,2.63
2023-02-09T08:41:12.269Z,2.21
2023-02-09T08:43:39.346Z,2.15
2023-02-09T08:46:12.715Z,2.27
2023-02-09T08:48:42.324Z,2.17
2023-02-09T08:51:10.648Z,3.06
2023-02-09T08:53:37.362Z,3.23
2023-02-09T08:56:04.116Z,3.45
2023-02-09T08:58:32.041Z,3.75
2023-02-09T09:00:59.927Z,3.66
2023-02-09T09:03:31.414Z,3.98
2023-02-09T09:06:00.225Z,3.72
2023-02-09T09:08:27.483Z,4.07
2023-02-09T09:10:58.980Z,4.44
2023-02-09T09:13:25.985Z,4.18
2023-02-09T09:15:55.437Z,4.27
2023-02-09T09:18:22.948Z,4.56
2023-02-09T09:20:49.624Z,4.64
2023-02-09T09:23:16.315Z,4.60
2023-02-09T09:25:43.308Z,4.27
2023-02-09T09:28:10.438Z,4.50
2023-02-09T09:30:36.942Z,4.76
2023-02-09T09:33:03.661Z,4.64
2023-02-09T09:35:31.028Z,4.51
2023-02-09T09:37:58.527Z,4.18
2023-02-09T09:40:28.591Z,4.66
2023-02-09T09:42:58.145Z,4.96
2023-02-09T09:45:28.301Z,5.10
2023-02-09T09:47:56.525Z,4.81
2023-02-09T09:50:29.494Z,5.09
2023-02-09T09:53:09.256Z,4.91
2023-02-09T09:55:38.451Z,4.56
2023-02-09T09:58:07.248Z,4.99
2023-02-09T10:00:40.240Z,4.85
2023-02-09T10:03:19.359Z,4.80
2023-02-09T10:06:12.259Z,4.41
2023-02-09T10:09:07.946Z,3.81
2023-02-09T10:11:49.084Z,4.65
2023-02-09T10:14:16.116Z,4.60
2023-02-09T10:16:44.023Z,4.36
2023-02-09T10:19:26.073Z,4.46
2023-02-09T10:21:54.337Z,4.94
2023-02-09T10:24:24.031Z,4.90
2023-02-09T10:27:34.048Z,4.56
2023-02-09T10:30:20.669Z,4.84
2023-02-09T10:32:47.778Z,4.91
2023-02-09T10:35:27.187Z,4.87
2023-02-09T10:38:02.376Z,4.88
2023-02-09T10:40:32.616Z,4.76
2023-02-09T10:43:05.811Z,4.37
2023-02-09T10:45:39.504Z,4.83
2023-02-09T10:48:18.840Z,4.79
2023-02-09T10:51:05.725Z,4.56
2023-02-09T10:53:41.445Z,4.19
2023-02-09T10:56:23.338Z,4.64
2023-02-09T10:58:53.526Z,4.20
2023-02-09T11:01:24.443Z,4.34
2023-02-09T11:04:06.790Z,4.70
2023-02-09T11:06:51.017Z,4.41
2023-02-09T11:09:20.925Z,4.36
2023-02-09T11:11:47.466Z,4.75
2023-02-09T11:14:17.207Z,4.19
2023-02-09T11:16:46.577Z,4.50
2023-02-09T11:19:31.960Z,4.16
2023-02-09T11:22:13.135Z,3.98
2023-02-09T11:25:18.060Z,4.01
2023-02-09T11:28:27.039Z,3.76
2023-02-09T11:31:31.184Z,3.86
2023-02-09T11:34:19.675Z,4.10
2023-02-09T11:37:02.365Z,4.08
2023-02-09T11:39:57.514Z,3.73
2023-02-09T11:42:46.573Z,3.11
2023-02-09T11:45:28.000Z,2.85
2023-02-09T11:48:05.716Z,3.55
2023-02-09T11:50:45.095Z,3.37
2023-02-09T11:53:36.583Z,3.46
2023-02-09T11:56:06.029Z,3.61
2023-02-09T11:58:39.457Z,3.57
2023-02-09T12:01:33.883Z,3.47
2023-02-09T12:04:06.073Z,3.26
2023-02-09T12:06:38.713Z,3.09
2023-02-09T12:09:17.210Z,3.36
2023-02-09T12:12:01.475Z,2.97
2023-02-09T12:14:39.447Z,3.15
2023-02-09T12:29:41.094Z,3.56
2023-02-09T12:32:08.097Z,3.39
2023-02-09T12:34:41.810Z,3.18
2023-02-09T12:37:16.885Z,2.78
2023-02-09T12:40:01.882Z,3.15
2023-02-09T12:42:44.664Z,3.29
2023-02-09T12:45:34.571Z,3.17
2023-02-09T12:48:17.621Z,3.11
2023-02-09T12:50:44.045Z,2.89
2023-02-09T12:53:22.643Z,3.02
2023-02-09T12:55:59.212Z,2.85
2023-02-09T12:58:52.944Z,2.62
2023-02-09T13:01:21.021Z,2.85
2023-02-09T13:04:00.863Z,3.04
2023-02-09T13:06:51.581Z,2.95
2023-02-09T13:09:28.926Z,2.82
2023-02-09T13:12:14.628Z,2.69
2023-02-09T13:14:48.834Z,2.55
2023-02-09T13:17:39.568Z,2.85
2023-02-09T13:20:34.025Z,2.85
2023-02-09T13:23:29.037Z,2.93
2023-02-09T13:26:02.141Z,3.08
2023-02-09T13:28:28.747Z,2.86
2023-02-09T13:30:55.332Z,2.65
2023-02-09T13:33:35.417Z,2.42
2023-02-09T13:36:11.124Z,2.67
2023-02-09T13:38:42.665Z,3.01
2023-02-09T13:41:24.905Z,2.77
2023-02-09T13:43:51.511Z,2.88
2023-02-09T13:46:29.084Z,3.13
2023-02-09T13:49:10.202Z,2.83
2023-02-09T13:51:36.624Z,2.93
2023-02-09T13:54:03.396Z,3.03
2023-02-09T13:56:31.650Z,2.81
2023-02-09T13:58:59.688Z,3.04
2023-02-09T14:01:30.148Z,3.20
2023-02-09T14:04:10.470Z,3.12
2023-02-09T14:06:44.633Z,3.06
2023-02-09T14:09:17.533Z,3.12
2023-02-09T14:11:53.024Z,2.92
2023-02-09T14:14:50.741Z,2.96
2023-02-09T14:17:34.790Z,2.86
2023-02-09T14:20:03.347Z,2.95
2023-02-09T14:22:37.730Z,2.85
2023-02-09T14:25:13.205Z,2.70
2023-02-09T14:27:40.621Z,2.98
2023-02-09T14:30:25.955Z,2.70
2023-02-09T14:32:57.845Z,2.63
2023-02-09T14:35:30.998Z,2.69
2023-02-09T14:38:01.172Z,3.13
2023-02-09T14:40:27.879Z,3.28
2023-02-09T14:42:58.862Z,2.99
2023-02-09T14:45:25.381Z,2.93
2023-02-09T14:47:54.084Z,2.71
2023-02-09T14:50:23.572Z,2.86
2023-02-09T14:52:54.505Z,2.54
2023-02-09T14:55:25.713Z,2.65
2023-02-09T14:57:52.425Z,2.77
2023-02-09T15:00:30.373Z,2.87
2023-02-09T15:02:58.628Z,2.84
2023-02-09T15:05:26.851Z,2.67
2023-02-09T15:07:59.016Z,2.40
2023-02-09T15:11:03.068Z,2.38
2023-02-09T15:13:30.542Z,2.57
2023-02-09T15:16:00.047Z,2.51
2023-02-09T15:18:27.305Z,2.40
2023-02-09T15:20:54.379Z,2.24
2023-02-09T15:23:20.941Z,2.63
2023-02-09T15:25:49.424Z,2.62
2023-02-09T16:14:23.192Z,1.27
2023-02-09T16:16:50.679Z,1.22
2023-02-09T16:19:17.678Z,1.09
2023-02-09T16:21:51.404Z,0.99
2023-02-09T16:24:23.858Z,0.73
2023-02-09T16:26:50.390Z,0.65
2023-02-09T16:29:16.906Z,0.57
2023-02-09T16:31:43.385Z,0.45
2023-02-09T16:34:15.383Z,0.38
2023-02-09T16:36:42.605Z,0.27
2023-02-09T16:39:20.238Z,0.24
2023-02-09T16:41:47.743Z,0.16
2023-02-09T16:44:19.225Z,0.17
2023-02-09T16:46:48.383Z,0.10
2023-02-09T16:49:26.632Z,-0.11
2023-02-09T16:51:57.838Z,-0.19
2023-02-09T16:54:24.393Z,-0.29
2023-02-09T16:56:54.591Z,-0.28
2023-02-09T16:59:21.316Z,-0.17
2023-02-09T17:01:49.205Z,-0.25
2023-02-09T17:04:15.856Z,-0.30
2023-02-09T17:06:42.476Z,-0.24
2023-02-09T17:09:15.514Z,-0.32
2023-02-09T17:11:43.032Z,-0.41
2023-02-09T17:14:09.600Z,-0.51
2023-02-09T17:16:39.222Z,-0.57
2023-02-09T17:19:12.298Z,-0.67
2023-02-09T17:21:40.349Z,-0.74
2023-02-09T17:24:14.193Z,-0.65
2023-02-09T17:26:40.882Z,-0.75
2023-02-09T17:29:11.289Z,-0.82
2023-02-09T17:31:52.360Z,-0.62
2023-02-09T17:34:20.289Z,-0.62
2023-02-09T17:36:46.767Z,-0.87
2023-02-09T17:39:13.747Z,-0.94
2023-02-09T17:41:45.278Z,-1.04
2023-02-09T17:44:31.918Z,-1.00
2023-02-09T17:47:05.975Z,-1.06
2023-02-09T17:49:34.921Z,-1.27
2023-02-09T17:52:02.492Z,-1.25
2023-02-09T17:54:29.061Z,-1.27
2023-02-09T17:56:55.507Z,-1.30
2023-02-09T17:59:21.991Z,-1.35
2023-02-09T18:01:50.242Z,-1.50
2023-02-09T18:04:25.031Z,-1.37
2023-02-09T18:06:51.633Z,-1.45
2023-02-09T18:09:18.137Z,-1.49
2023-02-09T18:11:44.562Z,-1.50
2023-02-09T18:14:15.905Z,-1.48
2023-02-09T18:16:45.172Z,-1.51
2023-02-09T18:19:13.279Z,-1.49
2023-02-09T18:21:52.882Z,-1.56
2023-02-09T18:24:21.401Z,-1.64
2023-02-09T18:26:49.904Z,-1.61
2023-02-09T18:29:17.913Z,-1.58
2023-02-09T18:31:44.522Z,-1.71
2023-02-09T18:34:10.983Z,-1.86
2023-02-09T18:36:39.552Z,-1.85
2023-02-09T18:39:11.089Z,-1.73
2023-02-09T18:41:37.573Z,-1.88
2023-02-09T18:44:04.122Z,-1.99
2023-02-09T18:46:30.740Z,-1.96
2023-02-09T18:48:57.338Z,-1.96
2023-02-09T18:51:24.093Z,-1.91
2023-02-09T18:53:51.270Z,-1.88
2023-02-09T18:56:25.767Z,-1.95
2023-02-09T18:58:52.637Z,-2.01
2023-02-09T19:01:25.216Z,-2.07
2023-02-09T19:03:53.180Z,-2.19
2023-02-09T19:06:20.623Z,-2.23
2023-02-09T19:08:48.771Z,-2.16
2023-02-09T19:11:17.025Z,-2.11
2023-02-09T19:14:03.690Z,-2.19
2023-02-09T19:16:30.413Z,-2.35
2023-02-09T19:18:58.273Z,-2.20
2023-02-09T19:21:24.923Z,-2.31
2023-02-09T19:23:53.970Z,-2.25
2023-02-09T19:26:20.962Z,-2.33
2023-02-09T19:28:48.247Z,-2.47
2023-02-09T19:31:17.275Z,-2.55
2023-02-09T19:33:44.176Z,-2.76
2023-02-09T19:36:11.756Z,-2.54
2023-02-09T19:38:40.262Z,-2.73
2023-02-09T19:41:11.832Z,-2.82
2023-02-09T19:43:39.799Z,-2.74
2023-02-09T19:46:07.392Z,-2.83
2023-02-09T19:48:40.004Z,-2.78
2023-02-09T19:51:15.010Z,-2.86
2023-02-09T19:53:44.676Z,-3.07
2023-02-09T19:56:19.612Z,-3.23
2023-02-09T19:58:50.219Z,-3.24
2023-02-09T20:01:18.012Z,-3.25
2023-02-09T20:03:44.750Z,-3.32
2023-02-09T20:06:14.214Z,-3.17
2023-02-09T20:08:40.900Z,-3.48
2023-02-09T20:11:11.146Z,-3.26
2023-02-09T20:13:38.767Z,-3.24
2023-02-09T20:16:10.471Z,-3.24
2023-02-09T20:18:37.331Z,-3.35
2023-02-09T20:21:10.614Z,-3.39
2023-02-09T20:23:37.275Z,-3.36
2023-02-09T20:26:16.673Z,-3.40
2023-02-09T20:28:44.410Z,-3.24
2023-02-09T20:31:27.924Z,-3.50
2023-02-09T20:33:54.965Z,-3.65
2023-02-09T20:36:23.784Z,-3.73
2023-02-09T20:38:50.977Z,-3.73
2023-02-09T20:41:18.209Z,-3.88
2023-02-09T20:44:03.925Z,-3.79
2023-02-09T20:46:52.144Z,-3.78
2023-02-09T20:49:19.469Z,-3.78
2023-02-09T20:51:46.365Z,-3.77
2023-02-09T20:54:13.575Z,-4.04
2023-02-09T20:56:40.175Z,-4.00
2023-02-09T20:59:07.460Z,-3.83
2023-02-09T21:01:36.117Z,-3.85
2023-02-09T21:04:02.582Z,-4.06
2023-02-09T21:06:29.098Z,-4.04
2023-02-09T21:08:55.643Z,-3.86
2023-02-09T21:11:22.250Z,-3.87
2023-02-09T21:13:51.742Z,-3.96
2023-02-09T21:16:20.287Z,-4.10
2023-02-09T21:18:47.921Z,-4.09
2023-02-09T21:21:17.018Z,-4.10
2023-02-09T21:23:44.917Z,-4.20
2023-02-09T21:26:14.338Z,-4.26
2023-02-09T21:28:41.073Z,-4.19
2023-02-09T21:31:17.082Z,-4.22
2023-02-09T21:33:43.604Z,-4.27
2023-02-09T21:36:10.746Z,-4.22
2023-02-09T21:38:41.649Z,-4.25
2023-02-09T21:41:36.305Z,-4.31
2023-02-09T21:44:03.247Z,-4.20
2023-02-09T21:46:30.050Z,-4.19
2023-02-09T21:48:56.613Z,-4.30
2023-02-09T21:51:24.032Z,-4.37
2023-02-09T21:53:50.554Z,-4.42
2023-02-09T21:56:17.620Z,-4.70
2023-02-09T21:58:44.341Z,-4.57
2023-02-09T22:01:11.201Z,-4.53
2023-02-09T22:03:42.541Z,-4.58
2023-02-09T22:06:10.443Z,-4.58
2023-02-09T22:08:37.145Z,-4.55
2023-02-09T22:11:05.986Z,-4.73
2023-02-09T22:13:33.160Z,-4.77
2023-02-09T22:16:00.736Z,-4.89
2023-02-09T22:18:29.320Z,-4.65
2023-02-09T22:20:56.700Z,-4.76
2023-02-09T22:23:26.979Z,-4.95
2023-02-09T22:26:01.024Z,-4.80
2023-02-09T22:28:28.277Z,-4.66
2023-02-09T22:30:55.534Z,-4.65
2023-02-09T22:33:22.983Z,-4.77
2023-02-09T22:35:49.691Z,-4.92
2023-02-09T22:38:16.161Z,-4.79
2023-02-09T22:40:42.693Z,-4.86
2023-02-09T22:43:09.232Z,-4.83
2023-02-09T22:45:35.947Z,-4.85
2023-02-09T22:48:02.455Z,-4.95
2023-02-09T22:50:28.901Z,-5.10
2023-02-09T22:52:55.350Z,-4.91
2023-02-09T22:55:21.855Z,-4.88
2023-02-09T22:57:48.765Z,-5.10
2023-02-09T23:00:16.026Z,-5.10
2023-02-09T23:02:42.841Z,-5.12
2023-02-09T23:05:09.486Z,-4.99
2023-02-09T23:07:35.912Z,-5.20
2023-02-09T23:10:02.473Z,-4.99
2023-02-09T23:12:29.975Z,-5.11
2023-02-09T23:14:56.437Z,-5.22
2023-02-09T23:17:26.944Z,-5.26
2023-02-09T23:19:53.431Z,-5.27
2023-02-09T23:22:20.191Z,-5.27
2023-02-09T23:24:46.974Z,-5.41
2023-02-09T23:27:13.453Z,-5.53
2023-02-09T23:29:39.897Z,-5.32
2023-02-09T23:32:06.391Z,-5.11
2023-02-09T23:34:33.625Z,-5.22
2023-02-09T23:37:05.844Z,-5.54
2023-02-09T23:39:40.212Z,-5.51
2023-02-09T23:42:06.666Z,-5.47
2023-02-09T23:44:33.752Z,-5.37
2023-02-09T23:47:00.254Z,-5.23
2023-02-09T23:49:26.702Z,-5.28
2023-02-09T23:51:53.158Z,-5.21
2023-02-09T23:54:20.684Z,-5.64
2023-02-09T23:56:49.513Z,-5.53
2023-02-09T23:59:16.207Z,-5.74
